Time;durP1;ratioP1;P1;durP2;ratioP2;P2;SDS_P1;SDS_P2;PMS_P1;PMS_P2;Temp;Humidity;BMP_temperature;BMP_pressure;BME280_temperature;BME280_humidity;BME280_pressure;Samples;Min_cycle;Max_cycle;Signal;HPM_P1;HPM_P2
2022/06/26 00:00:24;;;;;;;5.60;4.30;;;20.20;1.00;;;;;;4975040;28;20034;-77
2022/06/26 00:02:50;;;;;;;5.25;4.07;;;20.20;1.00;;;;;;4974877;28;20061;-78
2022/06/26 00:05:16;;;;;;;5.53;4.25;;;20.10;1.00;;;;;;4975008;28;20062;-77
2022/06/26 00:07:41;;;;;;;5.13;4.32;;;20.10;1.00;;;;;;4974922;28;20570;-78
2022/06/26 00:10:08;;;;;;;4.45;4.05;;;20.10;1.00;;;;;;4975505;28;20050;-78
2022/06/26 00:12:34;;;;;;;6.95;3.83;;;20.20;1.00;;;;;;4974351;28;20050;-77
2022/06/26 00:15:00;;;;;;;4.63;3.88;;;20.20;1.00;;;;;;4974842;28;20042;-78
2022/06/26 00:17:25;;;;;;;5.35;3.97;;;20.10;1.00;;;;;;4974619;28;20042;-78
2022/06/26 00:19:53;;;;;;;5.57;3.90;;;20.00;1.00;;;;;;4974669;28;20027;-78
2022/06/26 00:22:19;;;;;;;5.32;4.00;;;20.10;1.00;;;;;;4974112;28;20089;-78
2022/06/26 00:24:45;;;;;;;4.38;3.85;;;20.10;1.00;;;;;;4974601;28;20027;-78
2022/06/26 00:27:11;;;;;;;4.30;3.88;;;20.10;1.00;;;;;;4974030;28;20504;-78
2022/06/26 00:29:36;;;;;;;4.35;3.95;;;20.10;1.00;;;;;;4974348;28;20065;-78
2022/06/26 00:32:05;;;;;;;4.28;3.47;;;20.10;1.00;;;;;;4974399;28;20134;-77
2022/06/26 00:34:32;;;;;;;4.50;3.75;;;20.00;1.00;;;;;;4974535;28;20391;-78
2022/06/26 00:36:58;;;;;;;4.75;3.60;;;19.90;1.00;;;;;;4973087;28;20022;-78
2022/06/26 00:39:24;;;;;;;3.97;3.58;;;20.00;1.00;;;;;;4974048;28;20459;-78
2022/06/26 00:41:54;;;;;;;3.85;3.55;;;19.90;1.00;;;;;;4973907;28;20085;-78
2022/06/26 00:44:22;;;;;;;4.32;2.88;;;19.80;1.00;;;;;;4974371;28;20058;-77
2022/06/26 00:46:48;;;;;;;5.05;3.60;;;19.90;1.00;;;;;;4974021;28;20073;-77
2022/06/26 00:49:14;;;;;;;4.72;3.63;;;19.90;1.00;;;;;;4975012;28;20518;-78
2022/06/26 00:51:49;;;;;;;5.05;3.40;;;19.90;1.00;;;;;;4973898;28;20031;-77
2022/06/26 00:54:16;;;;;;;4.78;3.17;;;20.00;1.00;;;;;;4974013;28;20058;-78
2022/06/26 00:56:42;;;;;;;4.93;3.60;;;20.10;1.00;;;;;;4973522;28;20025;-77
2022/06/26 00:59:08;;;;;;;4.38;3.28;;;20.10;1.00;;;;;;4974088;28;20035;-77
2022/06/26 01:01:36;;;;;;;3.85;3.40;;;20.00;1.00;;;;;;4973941;28;20031;-77
2022/06/26 01:04:02;;;;;;;6.85;3.90;;;20.00;1.00;;;;;;4974477;28;20487;-78
2022/06/26 01:06:29;;;;;;;4.57;3.40;;;20.00;1.00;;;;;;4973584;28;20026;-78
2022/06/26 01:08:56;;;;;;;3.90;3.53;;;20.00;1.00;;;;;;4973595;28;20031;-77
2022/06/26 01:11:26;;;;;;;5.72;3.15;;;20.00;1.00;;;;;;4973449;28;20487;-78
2022/06/26 01:13:54;;;;;;;4.07;3.60;;;20.10;1.00;;;;;;4973651;28;20502;-76
2022/06/26 01:16:21;;;;;;;5.95;3.70;;;20.00;1.00;;;;;;4974119;28;20027;-78
2022/06/26 01:18:48;;;;;;;4.97;3.45;;;19.90;1.00;;;;;;4973714;28;20370;-77
2022/06/26 01:21:16;;;;;;;4.15;3.60;;;19.90;1.00;;;;;;4973546;28;20031;-76
2022/06/26 01:23:42;;;;;;;3.67;3.30;;;19.90;1.00;;;;;;4973529;28;20050;-77
2022/06/26 01:26:08;;;;;;;4.18;3.30;;;19.90;1.00;;;;;;4973021;28;20051;-78
2022/06/26 01:28:34;;;;;;;3.80;3.40;;;20.00;1.00;;;;;;4973341;28;20073;-77
2022/06/26 01:30:59;;;;;;;4.18;3.38;;;20.10;1.00;;;;;;4973992;28;20068;-77
2022/06/26 01:33:25;;;;;;;8.38;3.65;;;20.10;1.00;;;;;;4973341;28;20027;-78
2022/06/26 01:35:50;;;;;;;5.05;3.42;;;20.00;1.00;;;;;;4973271;28;20023;-78
2022/06/26 01:38:21;;;;;;;3.80;3.28;;;20.00;1.00;;;;;;4973373;28;20027;-77
2022/06/26 01:40:52;;;;;;;3.85;3.53;;;19.90;1.00;;;;;;4957691;28;20043;-77
2022/06/26 01:43:23;;;;;;;4.50;3.47;;;19.90;1.00;;;;;;4970198;28;20031;-77
2022/06/26 01:45:51;;;;;;;5.07;3.40;;;20.00;1.00;;;;;;4973570;28;20070;-78
2022/06/26 01:48:17;;;;;;;3.75;3.45;;;20.10;1.00;;;;;;4973126;28;20447;-78
2022/06/26 01:50:44;;;;;;;5.55;2.83;;;20.00;1.00;;;;;;4973118;28;20423;-78
2022/06/26 01:53:10;;;;;;;2.10;1.90;;;20.10;1.00;;;;;;4973077;28;20019;-77
2022/06/26 01:55:36;;;;;;;2.08;1.88;;;20.10;1.00;;;;;;4972794;28;20574;-77
2022/06/26 01:58:02;;;;;;;2.53;1.70;;;20.10;1.00;;;;;;4973801;28;20058;-77
2022/06/26 02:00:33;;;;;;;2.65;1.70;;;19.90;1.00;;;;;;4972872;28;20543;-78
2022/06/26 02:02:59;;;;;;;2.60;1.67;;;19.70;1.00;;;;;;4972943;28;20023;-77
2022/06/26 02:05:25;;;;;;;2.60;1.65;;;19.50;1.00;;;;;;4972855;28;20416;-78
2022/06/26 02:07:51;;;;;;;2.03;1.90;;;19.50;1.00;;;;;;4955216;28;20483;-78
2022/06/26 02:15:48;;;;;;;2.53;2.03;;;19.30;1.00;;;;;;4973255;28;20030;-78
2022/06/26 02:18:14;;;;;;;2.88;2.10;;;19.20;1.00;;;;;;4972720;28;20027;-77
2022/06/26 02:20:40;;;;;;;3.00;2.30;;;19.20;1.00;;;;;;4972658;28;21595;-77
2022/06/26 02:23:06;;;;;;;3.55;2.30;;;19.20;1.00;;;;;;4972489;28;20108;-77
2022/06/26 02:25:31;;;;;;;3.33;2.30;;;19.30;1.00;;;;;;4972715;28;20043;-77
2022/06/26 02:27:57;;;;;;;2.38;2.10;;;19.20;1.00;;;;;;4973228;28;20031;-77
2022/06/26 02:30:23;;;;;;;3.90;2.00;;;19.30;1.00;;;;;;4972603;28;20022;-77
2022/06/26 02:32:48;;;;;;;3.10;1.90;;;19.30;1.00;;;;;;4972616;28;20038;-77
2022/06/26 02:35:14;;;;;;;3.45;2.13;;;19.20;1.00;;;;;;4972681;28;20101;-77
2022/06/26 02:37:39;;;;;;;3.55;2.10;;;19.20;1.00;;;;;;4972307;28;20085;-77
2022/06/26 02:40:06;;;;;;;2.75;1.83;;;19.20;1.00;;;;;;4972976;28;20047;-77
2022/06/26 02:42:31;;;;;;;3.40;2.00;;;19.20;1.00;;;;;;4972458;28;20122;-77
2022/06/26 02:44:57;;;;;;;3.78;1.90;;;19.10;1.00;;;;;;4973104;28;20062;-77
2022/06/26 02:47:23;;;;;;;2.15;1.95;;;19.00;1.00;;;;;;4976258;28;20110;-77
2022/06/26 02:49:48;;;;;;;3.75;2.17;;;19.00;1.00;;;;;;4976689;28;20045;-77
2022/06/26 02:52:14;;;;;;;2.88;2.00;;;19.10;1.00;;;;;;4977109;28;20027;-77
2022/06/26 02:54:39;;;;;;;4.57;2.20;;;19.00;1.00;;;;;;4976162;28;20407;-77
2022/06/26 02:57:05;;;;;;;5.65;2.30;;;19.00;1.00;;;;;;4976347;28;20121;-77
2022/06/26 02:59:31;;;;;;;3.65;2.17;;;18.90;1.00;;;;;;4976039;28;20031;-77
2022/06/26 03:01:57;;;;;;;3.70;2.20;;;18.80;1.00;;;;;;4976186;28;20023;-77
2022/06/26 03:04:23;;;;;;;4.70;2.17;;;18.60;1.00;;;;;;4976385;28;20534;-77
2022/06/26 03:06:49;;;;;;;6.18;2.42;;;18.70;1.00;;;;;;4975187;28;20491;-77
2022/06/26 03:09:14;;;;;;;5.75;2.60;;;18.70;1.00;;;;;;4976102;28;20022;-77
2022/06/26 03:11:41;;;;;;;4.35;2.95;;;18.70;1.00;;;;;;4975924;28;20031;-77
2022/06/26 03:14:07;;;;;;;5.00;2.35;;;18.70;1.00;;;;;;4976536;28;20030;-77
2022/06/26 03:16:33;;;;;;;3.58;2.42;;;18.60;1.00;;;;;;4976113;28;20058;-77
2022/06/26 03:18:58;;;;;;;4.57;2.47;;;18.40;1.00;;;;;;4976483;28;20034;-77
2022/06/26 03:21:24;;;;;;;6.88;3.05;;;18.40;1.00;;;;;;4975657;28;20500;-77
2022/06/26 03:24:01;;;;;;;6.20;2.55;;;18.40;1.00;;;;;;4975693;28;20065;-77
2022/06/26 03:26:32;;;;;;;5.25;2.50;;;18.30;1.00;;;;;;4975944;28;20089;-77
2022/06/26 03:28:58;;;;;;;5.00;2.88;;;18.40;1.00;;;;;;4976387;28;20027;-77
2022/06/26 03:31:24;;;;;;;5.68;3.00;;;18.30;1.00;;;;;;4975938;28;20039;-77
2022/06/26 03:33:49;;;;;;;2.70;2.42;;;18.50;1.00;;;;;;4976465;28;20027;-77
2022/06/26 03:36:16;;;;;;;3.50;2.50;;;18.70;1.00;;;;;;4975664;28;20041;-77
2022/06/26 03:38:43;;;;;;;7.13;3.00;;;18.80;1.00;;;;;;4975275;28;20074;-76
2022/06/26 03:41:09;;;;;;;4.20;2.95;;;18.90;1.00;;;;;;4975495;28;20034;-77
2022/06/26 03:43:34;;;;;;;4.25;2.85;;;19.00;1.00;;;;;;4975173;28;20058;-77
2022/06/26 03:46:00;;;;;;;7.18;2.50;;;19.10;1.00;;;;;;4976251;28;20031;-77
2022/06/26 03:48:25;;;;;;;2.60;2.30;;;19.10;1.00;;;;;;4975574;28;20038;-77
2022/06/26 03:50:51;;;;;;;5.65;2.45;;;19.20;1.00;;;;;;4975042;28;20031;-77
2022/06/26 03:53:17;;;;;;;5.60;2.85;;;19.20;1.00;;;;;;4975152;28;20023;-79
2022/06/26 03:55:43;;;;;;;4.82;2.97;;;19.10;1.00;;;;;;4975234;28;20035;-77
2022/06/26 03:58:09;;;;;;;6.20;2.88;;;19.10;1.00;;;;;;4974601;28;20035;-77
2022/06/26 04:00:35;;;;;;;2.85;2.30;;;19.10;1.00;;;;;;4975044;28;20038;-77
2022/06/26 04:03:07;;;;;;;4.63;2.53;;;19.00;1.00;;;;;;4974924;28;20066;-77
2022/06/26 04:05:35;;;;;;;4.68;2.50;;;18.90;1.00;;;;;;4974602;28;20117;-77
2022/06/26 04:08:01;;;;;;;3.55;2.30;;;18.80;1.00;;;;;;4974948;28;20042;-76
2022/06/26 04:10:27;;;;;;;4.00;2.42;;;18.80;1.00;;;;;;4975040;28;20046;-77
2022/06/26 04:12:53;;;;;;;3.80;2.63;;;18.80;1.00;;;;;;4975382;28;20488;-77
2022/06/26 04:15:19;;;;;;;4.32;2.60;;;18.70;1.00;;;;;;4974688;28;20130;-77
2022/06/26 04:17:45;;;;;;;2.50;2.30;;;18.60;1.00;;;;;;4974266;28;20033;-77
2022/06/26 04:20:11;;;;;;;3.70;2.60;;;18.60;1.00;;;;;;4974046;28;20053;-76
2022/06/26 04:22:37;;;;;;;2.33;2.13;;;18.70;1.00;;;;;;4974655;28;20105;-77
2022/06/26 04:25:04;;;;;;;6.18;2.60;;;18.80;1.00;;;;;;4975239;28;20476;-77
2022/06/26 04:27:30;;;;;;;5.03;2.58;;;18.90;1.00;;;;;;4974402;28;20062;-77
2022/06/26 04:29:56;;;;;;;3.10;2.20;;;18.90;1.00;;;;;;4974240;28;20441;-77
2022/06/26 04:32:22;;;;;;;2.60;2.10;;;18.80;1.00;;;;;;4974495;28;20027;-77
2022/06/26 04:34:48;;;;;;;3.28;2.08;;;18.70;1.00;;;;;;4974198;28;20041;-77
2022/06/26 04:37:13;;;;;;;2.47;1.90;;;18.70;1.00;;;;;;4975232;28;20034;-77
2022/06/26 04:39:39;;;;;;;2.33;1.98;;;18.60;1.00;;;;;;4973964;28;20047;-76
2022/06/26 04:42:05;;;;;;;2.47;2.28;;;18.80;1.00;;;;;;4974187;28;20460;-77
2022/06/26 04:44:30;;;;;;;2.13;1.83;;;18.90;1.00;;;;;;4973901;28;20030;-76
2022/06/26 04:46:56;;;;;;;2.78;1.88;;;19.00;1.00;;;;;;4974346;28;20093;-77
2022/06/26 04:49:22;;;;;;;1.80;1.70;;;18.90;1.00;;;;;;4973950;28;20030;-76
2022/06/26 04:51:47;;;;;;;2.05;1.50;;;18.90;1.00;;;;;;4974106;28;20499;-77
2022/06/26 04:54:13;;;;;;;2.38;1.60;;;18.90;1.00;;;;;;4973655;28;20392;-77
2022/06/26 04:56:38;;;;;;;2.67;1.60;;;18.90;1.00;;;;;;4973889;28;20041;-76
2022/06/26 04:59:05;;;;;;;2.00;1.77;;;18.70;1.00;;;;;;4974019;28;20062;-76
2022/06/26 05:01:31;;;;;;;4.35;1.90;;;18.90;1.00;;;;;;4973898;28;20062;-76
2022/06/26 05:03:58;;;;;;;2.70;2.03;;;19.00;1.00;;;;;;4974277;28;20065;-77
2022/06/26 05:06:24;;;;;;;1.90;1.80;;;19.10;1.00;;;;;;4973715;28;20042;-77
2022/06/26 05:08:50;;;;;;;2.00;1.80;;;19.30;1.00;;;;;;4973325;28;20419;-77
2022/06/26 05:11:19;;;;;;;3.00;1.90;;;19.20;1.00;;;;;;4973523;28;20027;-77
2022/06/26 05:13:46;;;;;;;2.30;1.92;;;19.20;1.00;;;;;;4958334;28;20447;-77
2022/06/26 05:16:11;;;;;;;3.20;2.08;;;19.30;1.00;;;;;;4974248;28;20381;-77
2022/06/26 05:18:37;;;;;;;2.85;2.47;;;19.30;1.00;;;;;;4973007;28;20034;-77
2022/06/26 05:21:03;;;;;;;2.80;2.28;;;19.10;1.00;;;;;;4973542;28;20023;-77
2022/06/26 05:23:28;;;;;;;2.45;2.25;;;19.30;1.00;;;;;;4973333;28;20042;-76
2022/06/26 05:25:54;;;;;;;3.60;2.17;;;19.30;1.00;;;;;;4973640;28;20027;-77
2022/06/26 05:28:20;;;;;;;3.45;2.38;;;19.30;1.00;;;;;;4973607;28;20031;-77
2022/06/26 05:30:46;;;;;;;2.65;2.15;;;19.30;1.00;;;;;;4973725;28;20506;-78
2022/06/26 05:33:11;;;;;;;4.30;2.78;;;19.20;1.00;;;;;;4972975;28;20112;-77
2022/06/26 05:35:37;;;;;;;3.30;2.15;;;19.20;1.00;;;;;;4973174;28;20030;-79
2022/06/26 05:38:03;;;;;;;2.90;2.22;;;18.80;1.00;;;;;;4972594;28;20023;-79
2022/06/26 05:40:29;;;;;;;3.53;2.30;;;18.60;1.00;;;;;;4973195;28;20471;-78
2022/06/26 05:42:57;;;;;;;4.05;2.47;;;19.00;1.00;;;;;;4973420;28;20054;-78
2022/06/26 05:45:23;;;;;;;1.90;1.80;;;19.40;1.00;;;;;;4972577;28;20050;-79
2022/06/26 05:47:49;;;;;;;3.17;2.10;;;19.30;1.00;;;;;;4973166;28;20039;-78
2022/06/26 05:50:15;;;;;;;3.13;2.25;;;19.30;1.00;;;;;;4972602;28;20026;-77
2022/06/26 05:52:40;;;;;;;2.35;2.10;;;19.40;1.00;;;;;;4972828;28;20514;-77
2022/06/26 05:55:08;;;;;;;3.05;2.33;;;19.50;1.00;;;;;;4973185;28;20050;-76
2022/06/26 05:57:33;;;;;;;5.05;2.15;;;19.90;1.00;;;;;;4972445;28;20388;-77
2022/06/26 05:59:59;;;;;;;3.15;2.00;;;19.90;1.00;;;;;;4971756;28;20031;-77
2022/06/26 06:02:25;;;;;;;2.13;1.60;;;20.00;1.00;;;;;;4973160;28;20102;-77
2022/06/26 06:04:51;;;;;;;2.67;1.90;;;20.20;1.00;;;;;;4955629;28;20113;-77
2022/06/26 06:07:16;;;;;;;2.08;1.55;;;19.70;1.00;;;;;;4973299;28;20463;-77
2022/06/26 06:09:42;;;;;;;1.75;1.60;;;19.20;1.00;;;;;;4973074;28;20118;-77
2022/06/26 06:12:08;;;;;;;1.60;1.50;;;19.50;1.00;;;;;;4972403;28;20113;-77
2022/06/26 06:14:35;;;;;;;1.45;1.35;;;20.10;1.00;;;;;;4972003;28;20102;-78
2022/06/26 06:17:35;;;;;;;1.50;1.40;;;20.40;1.00;;;;;;4972463;28;20089;-77
2022/06/26 06:19:47;;;;;;;1.67;1.40;;;20.30;1.00;;;;;;4957108;28;20492;-77
2022/06/26 06:22:12;;;;;;;3.20;1.60;;;20.40;1.00;;;;;;4973417;28;20045;-78
2022/06/26 06:24:38;;;;;;;1.80;1.48;;;20.00;1.00;;;;;;4976433;28;20479;-77
2022/06/26 06:27:05;;;;;;;1.77;1.60;;;19.80;1.00;;;;;;4976518;28;20061;-78
2022/06/26 06:29:30;;;;;;;1.55;1.45;;;19.70;1.00;;;;;;4975868;28;20025;-78
2022/06/26 06:31:56;;;;;;;1.48;1.38;;;19.90;1.00;;;;;;4976082;28;20026;-77
2022/06/26 06:34:21;;;;;;;1.75;1.40;;;19.80;1.00;;;;;;4976457;28;20502;-77
2022/06/26 06:36:47;;;;;;;1.55;1.45;;;19.70;1.00;;;;;;4976428;28;20033;-77
2022/06/26 06:39:12;;;;;;;2.15;1.70;;;19.30;1.00;;;;;;4975734;28;20419;-77
2022/06/26 06:41:38;;;;;;;1.55;1.45;;;19.70;1.00;;;;;;4975892;28;20081;-78
2022/06/26 06:44:04;;;;;;;1.98;1.88;;;20.10;1.00;;;;;;4975623;28;20045;-76
2022/06/26 06:46:30;;;;;;;1.60;1.50;;;20.60;1.00;;;;;;4958528;28;20038;-78
2022/06/26 06:48:55;;;;;;;2.30;1.80;;;20.70;1.00;;;;;;4975937;28;20039;-79
2022/06/26 06:51:21;;;;;;;1.60;1.45;;;20.50;1.00;;;;;;4975305;28;20479;-76
2022/06/26 06:53:47;;;;;;;1.70;1.60;;;20.40;1.00;;;;;;4975494;28;20027;-79
2022/06/26 06:56:13;;;;;;;1.90;1.55;;;20.30;1.00;;;;;;4975696;28;20102;-77
2022/06/26 06:58:38;;;;;;;1.92;1.50;;;19.90;1.00;;;;;;4975222;28;20114;-79
2022/06/26 07:01:04;;;;;;;2.03;1.50;;;20.40;1.00;;;;;;4976260;28;20023;-78
2022/06/26 07:03:29;;;;;;;1.20;1.20;;;20.60;1.00;;;;;;4975230;28;20054;-80
2022/06/26 07:05:55;;;;;;;4.68;1.85;;;20.30;1.00;;;;;;4975932;28;20511;-90
2022/06/26 07:08:20;;;;;;;1.92;1.67;;;20.50;1.00;;;;;;4975464;28;20038;-82
2022/06/26 07:10:46;;;;;;;1.80;1.70;;;21.20;1.00;;;;;;4975923;28;20023;-84
2022/06/26 07:13:11;;;;;;;3.05;1.60;;;21.40;1.00;;;;;;4975694;28;20058;-80
2022/06/26 07:15:38;;;;;;;1.88;1.60;;;21.60;1.00;;;;;;4975295;28;20043;-83
2022/06/26 07:18:04;;;;;;;1.73;1.60;;;21.70;1.00;;;;;;4975076;28;20495;-80
2022/06/26 07:20:30;;;;;;;1.85;1.75;;;21.80;1.00;;;;;;4975129;28;20027;-81
2022/06/26 07:22:55;;;;;;;3.53;1.80;;;21.90;1.00;;;;;;4975168;28;20381;-85
2022/06/26 07:25:22;;;;;;;3.80;1.92;;;21.90;1.00;;;;;;4975257;28;20073;-80
2022/06/26 07:27:48;;;;;;;6.35;1.80;;;22.00;1.00;;;;;;4975059;28;20130;-82
2022/06/26 07:30:14;;;;;;;1.75;1.65;;;22.30;1.00;;;;;;4975708;28;20058;-83
2022/06/26 07:32:39;;;;;;;2.10;1.90;;;22.10;1.00;;;;;;4974275;28;20042;-81
2022/06/26 07:35:05;;;;;;;1.90;1.80;;;22.10;1.00;;;;;;4975348;28;20037;-86
2022/06/26 07:37:31;;;;;;;4.25;1.77;;;21.60;1.00;;;;;;4975421;28;20023;-84
2022/06/26 07:39:57;;;;;;;1.95;1.85;;;21.80;1.00;;;;;;4975130;28;20054;-88
2022/06/26 07:42:22;;;;;;;2.03;1.70;;;21.70;1.00;;;;;;4974937;28;20046;-86
2022/06/26 07:44:48;;;;;;;7.40;1.70;;;21.80;1.00;;;;;;4975117;28;20027;-86
2022/06/26 07:47:14;;;;;;;6.00;2.08;;;22.10;1.00;;;;;;4974971;28;20030;-82
2022/06/26 07:49:39;;;;;;;3.45;1.50;;;22.20;1.00;;;;;;4974962;28;20054;-81
2022/06/26 07:52:05;;;;;;;3.65;1.95;;;22.50;1.00;;;;;;4975462;28;20286;-78
2022/06/26 07:54:31;;;;;;;3.90;1.70;;;22.80;1.00;;;;;;4974495;28;20464;-81
2022/06/26 07:56:56;;;;;;;3.78;1.80;;;23.00;1.00;;;;;;4974174;28;20042;-89
2022/06/26 07:59:22;;;;;;;3.88;2.00;;;23.10;1.00;;;;;;4974679;28;20368;-81
2022/06/26 08:01:48;;;;;;;2.28;1.95;;;23.00;1.00;;;;;;4974636;28;20030;-81
2022/06/26 08:04:13;;;;;;;2.53;1.60;;;22.80;1.00;;;;;;4970955;28;20023;-80
2022/06/26 08:06:39;;;;;;;2.13;1.88;;;22.90;1.00;;;;;;4974167;28;20149;-81
2022/06/26 08:09:06;;;;;;;2.45;1.90;;;23.30;1.00;;;;;;4973912;28;20035;-83
2022/06/26 08:11:33;;;;;;;2.35;2.08;;;23.20;1.00;;;;;;4974062;28;20058;-79
2022/06/26 08:13:58;;;;;;;2.10;1.73;;;23.60;1.00;;;;;;4973710;28;20432;-82
2022/06/26 08:16:24;;;;;;;2.83;1.60;;;23.30;1.00;;;;;;4974559;28;20131;-83
2022/06/26 08:18:50;;;;;;;3.45;1.80;;;23.80;1.00;;;;;;4974628;28;20047;-81
2022/06/26 08:24:00;;;;;;;2.00;1.90;;;24.40;1.00;;;;;;4974207;28;20065;-80
2022/06/26 08:26:25;;;;;;;4.00;1.95;;;24.70;1.00;;;;;;4973710;28;20468;-80
2022/06/26 08:28:51;;;;;;;2.20;2.00;;;24.30;1.00;;;;;;4973359;28;20517;-81
2022/06/26 08:31:17;;;;;;;3.00;1.90;;;23.90;1.00;;;;;;4957255;28;20027;-82
2022/06/26 08:33:42;;;;;;;2.30;2.10;;;23.80;1.00;;;;;;4973850;28;20098;-83
2022/06/26 08:36:08;;;;;;;2.40;2.03;;;23.60;1.00;;;;;;4973714;28;20093;-82
2022/06/26 08:38:34;;;;;;;1.92;1.83;;;24.20;1.00;;;;;;4973717;28;20035;-81
2022/06/26 08:41:00;;;;;;;2.10;1.90;;;25.00;1.00;;;;;;4973076;28;20046;-83
2022/06/26 08:43:27;;;;;;;3.45;2.10;;;24.90;1.00;;;;;;4972705;28;20142;-82
2022/06/26 08:45:54;;;;;;;3.28;1.70;;;24.70;1.00;;;;;;4973666;28;20015;-83
2022/06/26 08:48:24;;;;;;;2.05;1.63;;;24.90;1.00;;;;;;4973779;28;20435;-81
2022/06/26 08:50:50;;;;;;;1.50;1.40;;;25.40;1.00;;;;;;4973548;28;20022;-81
2022/06/26 08:53:16;;;;;;;2.45;1.50;;;26.00;1.00;;;;;;4973402;28;20031;-80
2022/06/26 08:55:43;;;;;;;1.83;1.50;;;26.40;1.00;;;;;;4972787;28;20023;-81
2022/06/26 08:58:09;;;;;;;2.67;2.20;;;26.40;1.00;;;;;;4973712;28;20483;-81
2022/06/26 09:00:35;;;;;;;2.10;1.90;;;26.40;1.00;;;;;;4972828;28;20041;-77
2022/06/26 09:03:01;;;;;;;2.40;1.77;;;25.80;1.00;;;;;;4970261;28;20034;-81
2022/06/26 09:05:26;;;;;;;1.60;1.50;;;25.50;1.00;;;;;;4968120;28;20023;-77
2022/06/26 09:07:54;;;;;;;2.35;2.00;;;25.80;1.00;;;;;;4969185;28;20046;-78
2022/06/26 09:10:20;;;;;;;2.58;1.75;;;25.40;1.00;;;;;;4972809;28;20077;-80
2022/06/26 09:12:55;;;;;;;3.70;1.70;;;25.30;1.00;;;;;;4970407;28;20077;-79
2022/06/26 09:15:23;;;;;;;1.92;1.83;;;25.40;1.00;;;;;;4970262;28;20254;-79
2022/06/26 09:18:01;;;;;;;3.40;2.10;;;25.10;1.00;;;;;;4971965;28;20045;-80
2022/06/26 09:20:28;;;;;;;4.43;2.83;;;24.90;1.00;;;;;;4970464;28;20022;-78
2022/06/26 09:22:59;;;;;;;4.28;3.63;;;24.40;1.00;;;;;;4970194;28;20078;-79
2022/06/26 09:25:45;;;;;;;4.45;3.22;;;23.70;1.00;;;;;;4972336;28;20035;-77
2022/06/26 09:28:15;;;;;;;3.50;2.83;;;23.90;1.00;;;;;;4972853;28;20112;-79
2022/06/26 09:31:02;;;;;;;3.25;2.95;;;24.30;1.00;;;;;;4970593;28;20030;-78
2022/06/26 09:33:35;;;;;;;3.60;3.30;;;24.10;1.00;;;;;;4971082;28;20531;-79
2022/06/26 09:36:05;;;;;;;5.47;3.30;;;24.10;1.00;;;;;;4970522;28;20081;-79
2022/06/26 09:38:33;;;;;;;3.92;3.47;;;24.00;1.00;;;;;;4970823;28;20031;-78
2022/06/26 09:41:01;;;;;;;3.70;3.40;;;23.90;1.00;;;;;;4970908;28;20050;-79
2022/06/26 09:43:41;;;;;;;4.55;3.83;;;23.80;1.00;;;;;;4971698;28;20435;-81
2022/06/26 09:46:16;;;;;;;4.90;3.85;;;23.70;1.00;;;;;;4971776;28;20042;-77
2022/06/26 09:48:42;;;;;;;3.70;3.30;;;23.60;1.00;;;;;;4970993;28;20038;-79
2022/06/26 09:51:10;;;;;;;4.30;3.17;;;23.90;1.00;;;;;;4971263;28;20019;-78
2022/06/26 09:53:37;;;;;;;3.80;3.50;;;24.10;1.00;;;;;;4972317;28;20090;-78
2022/06/26 09:56:05;;;;;;;3.72;3.42;;;24.20;1.00;;;;;;4972279;28;20053;-81
2022/06/26 09:58:31;;;;;;;3.92;3.60;;;24.10;1.00;;;;;;4972838;28;20043;-80
2022/06/26 10:06:30;;;;;;;3.75;3.25;;;24.60;1.00;;;;;;4969894;28;20417;-79
2022/06/26 10:08:58;;;;;;;4.10;3.30;;;24.70;1.00;;;;;;4972463;28;20030;-78
2022/06/26 10:11:30;;;;;;;4.50;3.40;;;24.90;1.00;;;;;;4972262;28;20037;-79
2022/06/26 10:14:24;;;;;;;4.40;3.28;;;25.80;1.00;;;;;;4972604;28;20114;-79
2022/06/26 10:17:14;;;;;;;4.35;2.92;;;26.10;1.00;;;;;;4958648;28;20030;-78
2022/06/26 10:20:06;;;;;;;5.47;2.97;;;26.00;1.00;;;;;;4971962;28;20519;-82
2022/06/26 10:22:43;;;;;;;3.70;2.78;;;25.80;1.00;;;;;;4966395;28;20527;-78
2022/06/26 10:25:29;;;;;;;3.30;2.75;;;25.90;1.00;;;;;;4971774;28;20212;-79
2022/06/26 10:27:56;;;;;;;3.10;2.80;;;26.50;1.00;;;;;;4972414;28;20053;-78
2022/06/26 10:30:24;;;;;;;4.53;4.13;;;26.90;1.00;;;;;;4971900;28;20023;-79
2022/06/26 10:33:07;;;;;;;3.90;3.25;;;27.10;1.00;;;;;;4972213;28;20031;-77
2022/06/26 10:35:37;;;;;;;3.80;3.47;;;27.30;1.00;;;;;;4971065;28;20443;-80
2022/06/26 10:38:21;;;;;;;4.55;3.03;;;27.20;1.00;;;;;;4972345;28;20062;-78
2022/06/26 10:44:10;;;;;;;4.00;2.70;;;27.40;1.00;;;;;;4957334;28;20545;-78
2022/06/26 10:46:37;;;;;;;2.83;2.50;;;26.90;1.00;;;;;;4971489;28;20411;-78
2022/06/26 10:49:07;;;;;;;3.05;2.47;;;27.10;1.00;;;;;;4971956;28;20030;-78
2022/06/26 10:51:33;;;;;;;2.63;2.42;;;27.00;1.00;;;;;;4970649;28;20444;-79
2022/06/26 10:54:01;;;;;;;2.50;2.30;;;27.20;1.00;;;;;;4972378;28;20113;-78
2022/06/26 10:56:26;;;;;;;4.65;4.20;;;27.60;1.00;;;;;;4971733;28;20037;-80
2022/06/26 10:58:59;;;;;;;6.05;2.60;;;28.30;1.00;;;;;;4970162;28;20027;-79
2022/06/26 11:01:27;;;;;;;3.70;3.05;;;28.80;1.00;;;;;;4972063;28;20031;-79
2022/06/26 11:03:53;;;;;;;2.60;2.40;;;28.70;1.00;;;;;;4972792;28;20049;-78
2022/06/26 11:06:19;;;;;;;4.20;2.80;;;28.10;1.00;;;;;;4971469;28;20539;-81
2022/06/26 11:08:52;;;;;;;3.60;2.28;;;27.70;1.00;;;;;;4975302;28;20030;-79
2022/06/26 11:11:20;;;;;;;3.92;3.53;;;27.20;1.00;;;;;;4971053;28;20031;-79
2022/06/26 11:13:51;;;;;;;3.08;2.40;;;27.10;1.00;;;;;;4959947;28;20554;-78
2022/06/26 11:16:17;;;;;;;2.60;2.40;;;26.90;1.00;;;;;;4972139;28;20027;-78
2022/06/26 11:18:42;;;;;;;2.67;2.47;;;26.90;1.00;;;;;;4982750;28;20022;-81
2022/06/26 11:21:08;;;;;;;3.33;2.75;;;27.30;1.00;;;;;;4983861;28;20418;-78
2022/06/26 11:23:36;;;;;;;3.95;2.83;;;27.50;1.00;;;;;;4984316;28;20037;-78
2022/06/26 11:26:08;;;;;;;2.75;2.53;;;28.10;1.00;;;;;;4981902;28;20045;-78
2022/06/26 11:28:34;;;;;;;2.60;2.40;;;29.00;1.00;;;;;;4979242;28;20074;-78
2022/06/26 11:31:03;;;;;;;5.43;2.53;;;28.60;1.00;;;;;;4965145;28;20058;-81
2022/06/26 11:33:31;;;;;;;2.42;2.10;;;28.70;1.00;;;;;;4973439;28;20073;-82
2022/06/26 11:36:05;;;;;;;2.30;2.10;;;28.10;1.00;;;;;;4983030;28;20105;-79
2022/06/26 11:38:32;;;;;;;3.42;2.10;;;27.40;1.00;;;;;;4979385;28;20033;-80
2022/06/26 11:40:59;;;;;;;2.38;2.15;;;27.10;1.00;;;;;;4981505;28;20059;-79
2022/06/26 11:43:25;;;;;;;2.28;2.00;;;27.00;1.00;;;;;;4984850;28;20027;-77
2022/06/26 11:45:51;;;;;;;3.05;1.95;;;27.00;1.00;;;;;;4983148;28;20447;-76
2022/06/26 11:48:17;;;;;;;8.98;2.30;;;27.20;1.00;;;;;;4982853;28;20541;-76
2022/06/26 11:51:01;;;;;;;2.22;2.10;;;28.80;1.00;;;;;;4981416;28;20084;-77
2022/06/26 11:53:32;;;;;;;4.10;2.15;;;28.70;1.00;;;;;;4974379;28;20093;-77
2022/06/26 11:56:03;;;;;;;2.90;2.60;;;29.50;1.00;;;;;;4964018;28;20027;-78
2022/06/26 11:58:32;;;;;;;4.47;2.22;;;29.80;1.00;;;;;;4960623;28;20031;-77
2022/06/26 12:01:14;;;;;;;2.70;2.15;;;30.00;1.00;;;;;;4975210;28;20031;-77
2022/06/26 12:03:46;;;;;;;2.38;2.08;;;29.50;1.00;;;;;;4963808;28;20039;-76
2022/06/26 12:06:11;;;;;;;4.80;2.40;;;29.80;1.00;;;;;;4969225;28;20027;-77
2022/06/26 12:08:37;;;;;;;3.65;2.05;;;29.80;1.00;;;;;;4974269;28;20054;-77
2022/06/26 12:11:03;;;;;;;3.40;2.10;;;29.40;1.00;;;;;;4971866;28;20066;-77
2022/06/26 12:13:33;;;;;;;3.35;1.80;;;29.20;1.00;;;;;;4962563;28;20046;-78
2022/06/26 12:16:09;;;;;;;2.30;2.10;;;30.40;1.00;;;;;;4963761;28;20499;-77
2022/06/26 12:18:36;;;;;;;4.25;2.35;;;30.10;1.00;;;;;;4961183;28;20039;-77
2022/06/26 12:21:03;;;;;;;5.18;2.40;;;31.90;1.00;;;;;;4968940;28;20031;-77
2022/06/26 12:23:37;;;;;;;3.25;1.90;;;32.70;1.00;;;;;;4969464;28;20031;-77
2022/06/26 12:26:15;;;;;;;2.13;1.90;;;34.00;1.00;;;;;;4974083;28;20023;-78
2022/06/26 12:28:48;;;;;;;3.00;1.95;;;30.90;1.00;;;;;;4974245;28;20142;-78
2022/06/26 12:31:14;;;;;;;3.53;1.90;;;30.70;1.00;;;;;;4972393;28;20038;-77
2022/06/26 12:33:40;;;;;;;5.05;2.25;;;34.60;1.00;;;;;;4973756;28;20034;-77
2022/06/26 12:36:05;;;;;;;2.70;2.30;;;36.70;1.00;;;;;;4974494;28;20035;-77
2022/06/26 12:38:34;;;;;;;2.60;2.08;;;37.10;1.00;;;;;;4973692;28;20026;-78
2022/06/26 12:41:02;;;;;;;3.60;1.83;;;36.10;1.00;;;;;;4973813;28;20054;-77
2022/06/26 12:43:28;;;;;;;3.53;2.05;;;34.60;1.00;;;;;;4973968;28;20050;-78
2022/06/26 12:45:53;;;;;;;3.88;2.30;;;35.50;1.00;;;;;;4960873;28;20035;-77
2022/06/26 12:48:19;;;;;;;2.35;1.80;;;33.40;1.00;;;;;;4970849;28;20117;-77
2022/06/26 12:50:44;;;;;;;2.65;1.88;;;32.40;1.00;;;;;;4973715;28;20035;-77
2022/06/26 12:53:10;;;;;;;3.63;1.70;;;33.30;1.00;;;;;;4970188;28;20238;-76
2022/06/26 12:55:36;;;;;;;3.50;2.00;;;31.10;1.00;;;;;;4973914;28;20579;-78
2022/06/26 12:58:02;;;;;;;2.70;1.83;;;33.40;1.00;;;;;;4974262;28;20046;-77
2022/06/26 13:00:28;;;;;;;2.25;1.90;;;34.00;1.00;;;;;;4973170;28;20037;-77
2022/06/26 13:02:53;;;;;;;2.72;1.88;;;34.50;1.00;;;;;;4973747;28;20022;-78
2022/06/26 13:05:19;;;;;;;4.30;2.08;;;34.40;1.00;;;;;;4973666;28;20070;-78
2022/06/26 13:07:45;;;;;;;3.67;2.03;;;34.70;1.00;;;;;;4968565;28;20125;-78
2022/06/26 13:10:11;;;;;;;3.80;2.00;;;34.10;1.00;;;;;;4973532;28;20395;-77
2022/06/26 13:12:37;;;;;;;2.65;1.88;;;32.90;1.00;;;;;;4973413;28;20041;-78
2022/06/26 13:15:03;;;;;;;3.55;1.90;;;32.30;1.00;;;;;;4973186;28;20434;-78